Time;durP1;ratioP1;P1;durP2;ratioP2;P2;SDS_P1;SDS_P2;PMS_P1;PMS_P2;Temp;Humidity;BMP_temperature;BMP_pressure;BME280_temperature;BME280_humidity;BME280_pressure;Samples;Min_cycle;Max_cycle;Signal;HPM_P1;HPM_P2
2022/12/29 00:01:14;;;;;;;30.23;14.30;;;-0.10;99.90;;;;;;5049765;28;20029;-79
2022/12/29 00:03:39;;;;;;;26.08;13.05;;;-0.10;99.90;;;;;;5054059;28;20027;-72
2022/12/29 00:06:05;;;;;;;22.17;11.60;;;-0.10;99.90;;;;;;5054666;28;20108;-71
2022/12/29 00:08:40;;;;;;;25.73;12.32;;;0.00;99.90;;;;;;5055094;28;20033;-78
2022/12/29 00:11:12;;;;;;;19.80;10.88;;;0.00;99.90;;;;;;5046132;28;20030;-72
2022/12/29 00:16:22;;;;;;;20.95;10.38;;;0.20;99.90;;;;;;5039214;28;20036;-72
2022/12/29 00:18:47;;;;;;;21.33;11.20;;;0.20;99.90;;;;;;5035244;28;20030;-78
2022/12/29 00:35:14;;;;;;;18.05;9.32;;;0.70;99.90;;;;;;5034580;28;20128;-72
2022/12/29 00:45:55;;;;;;;13.52;6.97;;;1.00;99.90;;;;;;5034482;28;20052;-78
2022/12/29 00:51:06;;;;;;;14.55;6.80;;;1.20;99.90;;;;;;5034235;28;20048;-72
2022/12/29 00:53:32;;;;;;;11.45;6.45;;;1.30;99.90;;;;;;5034400;28;20053;-72
2022/12/29 00:55:58;;;;;;;11.07;5.90;;;1.30;99.90;;;;;;5041824;28;20021;-79
2022/12/29 00:58:26;;;;;;;9.38;5.75;;;1.40;99.90;;;;;;5034278;28;20030;-78
2022/12/29 01:00:52;;;;;;;10.73;6.20;;;1.40;99.90;;;;;;5040688;28;20029;-72
2022/12/29 01:03:17;;;;;;;11.65;6.22;;;1.40;99.90;;;;;;5054252;28;20445;-79
2022/12/29 01:05:43;;;;;;;11.48;6.35;;;1.50;99.90;;;;;;5049202;28;20025;-72
2022/12/29 01:08:08;;;;;;;6.47;5.07;;;1.60;99.90;;;;;;5044787;28;20025;-79
2022/12/29 01:10:34;;;;;;;8.50;5.35;;;1.60;99.90;;;;;;5043178;28;20042;-79
2022/12/29 01:12:59;;;;;;;7.93;5.35;;;1.60;99.90;;;;;;5051371;28;20028;-72
2022/12/29 01:15:25;;;;;;;8.82;5.15;;;1.60;99.40;;;;;;5053620;28;20051;-72
2022/12/29 01:17:51;;;;;;;7.18;4.50;;;1.70;99.00;;;;;;5053080;28;20436;-72
2022/12/29 01:20:16;;;;;;;9.90;5.55;;;1.70;98.30;;;;;;5053274;28;20041;-73
2022/12/29 01:22:43;;;;;;;8.95;5.20;;;1.80;97.60;;;;;;5053804;28;20543;-79
2022/12/29 01:25:09;;;;;;;8.13;4.63;;;1.80;96.50;;;;;;5052204;28;20025;-78
2022/12/29 01:27:34;;;;;;;7.45;5.43;;;1.80;96.20;;;;;;5052384;28;20090;-78
2022/12/29 01:30:00;;;;;;;6.15;4.82;;;1.80;96.30;;;;;;5052081;28;20029;-72
2022/12/29 01:32:25;;;;;;;7.80;4.95;;;1.80;95.80;;;;;;5053648;28;20090;-79
2022/12/29 01:34:51;;;;;;;6.72;4.22;;;1.80;96.20;;;;;;5052323;28;20048;-79
2022/12/29 01:37:16;;;;;;;6.43;4.68;;;1.80;96.20;;;;;;5051908;28;20029;-72
2022/12/29 01:39:42;;;;;;;7.47;5.07;;;1.80;96.30;;;;;;5053109;28;20032;-79
2022/12/29 01:42:17;;;;;;;7.60;4.28;;;1.80;96.10;;;;;;5053463;28;20111;-72
2022/12/29 01:45:01;;;;;;;6.53;4.35;;;1.80;95.70;;;;;;5053178;28;20024;-79
2022/12/29 01:47:36;;;;;;;5.60;4.13;;;1.80;96.00;;;;;;5053324;28;20075;-78
2022/12/29 01:50:08;;;;;;;6.97;4.00;;;1.80;96.30;;;;;;5053062;28;20029;-72
2022/12/29 01:52:38;;;;;;;6.53;4.45;;;1.70;96.20;;;;;;5053247;28;20079;-79
2022/12/29 01:55:05;;;;;;;7.78;5.03;;;1.80;96.50;;;;;;5051641;28;20012;-79
2022/12/29 01:57:35;;;;;;;5.45;4.07;;;1.80;96.50;;;;;;5053204;28;20018;-79
2022/12/29 02:00:08;;;;;;;4.90;4.05;;;1.80;96.20;;;;;;5052855;28;20009;-72
2022/12/29 02:02:34;;;;;;;8.40;4.45;;;1.70;96.60;;;;;;5051904;28;20029;-73
2022/12/29 02:05:06;;;;;;;6.00;4.60;;;1.70;96.70;;;;;;5052400;28;20083;-72
2022/12/29 02:07:32;;;;;;;9.05;4.70;;;1.70;97.00;;;;;;5053076;28;20532;-79
2022/12/29 02:10:00;;;;;;;6.72;5.05;;;1.70;97.20;;;;;;5048401;28;20037;-72
2022/12/29 02:12:26;;;;;;;7.53;4.65;;;1.70;97.30;;;;;;5046178;28;20059;-73
2022/12/29 02:14:57;;;;;;;6.43;4.55;;;1.70;97.10;;;;;;5052646;28;20041;-79
2022/12/29 02:17:57;;;;;;;8.05;5.00;;;1.70;97.20;;;;;;5051887;28;20025;-79
2022/12/29 02:20:54;;;;;;;6.95;4.07;;;1.70;97.30;;;;;;5039077;28;20041;-74
2022/12/29 02:23:52;;;;;;;6.28;4.32;;;1.70;97.40;;;;;;5051659;28;20021;-72
2022/12/29 02:26:55;;;;;;;8.45;4.70;;;1.70;97.20;;;;;;5052761;28;20025;-79
2022/12/29 02:29:42;;;;;;;8.38;4.85;;;1.70;97.30;;;;;;5053590;28;20029;-78
2022/12/29 02:32:17;;;;;;;8.77;4.90;;;1.70;97.70;;;;;;5056464;28;20033;-72
2022/12/29 02:34:58;;;;;;;5.18;4.43;;;1.70;97.60;;;;;;5056527;28;20398;-78
2022/12/29 02:37:36;;;;;;;6.53;4.38;;;1.80;97.50;;;;;;5056895;28;20108;-79
2022/12/29 02:40:16;;;;;;;6.28;4.68;;;1.70;97.80;;;;;;5056494;28;20074;-72
2022/12/29 02:43:03;;;;;;;6.72;4.32;;;1.70;98.90;;;;;;5055674;28;20068;-72
2022/12/29 02:45:38;;;;;;;5.45;3.92;;;1.70;99.90;;;;;;5056220;28;20017;-78
2022/12/29 02:48:14;;;;;;;6.07;4.20;;;1.60;99.90;;;;;;5056856;28;20386;-72
2022/12/29 02:51:03;;;;;;;6.55;4.35;;;1.60;99.90;;;;;;5056312;28;20076;-71
2022/12/29 02:56:17;;;;;;;8.30;4.78;;;1.50;99.90;;;;;;5056309;28;20027;-71
2022/12/29 02:58:42;;;;;;;6.03;4.30;;;1.50;99.90;;;;;;5056466;28;20112;-72
2022/12/29 03:02:16;;;;;;;7.45;4.20;;;1.50;99.90;;;;;;5054989;28;20039;-73
2022/12/29 03:04:54;;;;;;;7.13;4.75;;;1.40;99.90;;;;;;5056326;28;20055;-78
2022/12/29 03:07:47;;;;;;;8.40;4.95;;;1.40;99.90;;;;;;5047080;28;20075;-72
2022/12/29 03:10:50;;;;;;;5.78;4.40;;;1.40;99.90;;;;;;5048437;28;20069;-79
2022/12/29 03:16:34;;;;;;;6.07;4.22;;;1.30;99.90;;;;;;5056158;28;20525;-72
2022/12/29 03:19:28;;;;;;;7.07;4.35;;;1.30;99.90;;;;;;5056226;28;20029;-72
2022/12/29 03:22:26;;;;;;;6.07;4.00;;;1.30;99.90;;;;;;5054495;28;20072;-79
2022/12/29 03:25:06;;;;;;;6.32;4.38;;;1.40;99.90;;;;;;5056039;28;20021;-79
2022/12/29 03:27:45;;;;;;;6.03;4.95;;;1.40;99.90;;;;;;5056043;28;20032;-79
2022/12/29 03:30:11;;;;;;;7.03;4.28;;;1.40;99.90;;;;;;5055571;28;20029;-72
2022/12/29 03:33:07;;;;;;;8.40;4.82;;;1.50;99.90;;;;;;5054638;28;20474;-73
2022/12/29 03:35:36;;;;;;;9.88;4.80;;;1.40;99.90;;;;;;5054409;28;20037;-78
2022/12/29 03:38:15;;;;;;;6.10;4.63;;;1.40;99.90;;;;;;5055720;28;20025;-79
2022/12/29 03:40:44;;;;;;;6.32;4.65;;;1.40;99.90;;;;;;5053352;28;20028;-78
2022/12/29 03:43:11;;;;;;;7.65;4.60;;;1.40;99.90;;;;;;5055761;28;20074;-73
2022/12/29 03:45:37;;;;;;;8.77;4.40;;;1.40;99.90;;;;;;5050574;28;20026;-72
2022/12/29 03:48:03;;;;;;;5.57;4.00;;;1.40;99.90;;;;;;5035747;28;20028;-74
2022/12/29 03:50:28;;;;;;;6.65;4.45;;;1.40;99.90;;;;;;5038823;28;20064;-72
2022/12/29 03:52:54;;;;;;;8.82;4.97;;;1.40;99.90;;;;;;5054254;28;20060;-79
2022/12/29 03:55:20;;;;;;;9.57;4.50;;;1.40;99.90;;;;;;5055015;28;20033;-72
2022/12/29 03:57:45;;;;;;;6.38;4.18;;;1.40;99.90;;;;;;5053801;28;20032;-73
2022/12/29 04:00:11;;;;;;;5.38;3.95;;;1.40;99.90;;;;;;5049055;28;20024;-79
2022/12/29 04:02:37;;;;;;;6.85;5.22;;;1.40;99.90;;;;;;5035425;28;20069;-73
2022/12/29 04:05:03;;;;;;;5.88;4.80;;;1.40;99.90;;;;;;5034982;28;20060;-72
2022/12/29 04:07:28;;;;;;;7.47;4.68;;;1.40;99.90;;;;;;5040284;28;20489;-78
2022/12/29 04:09:54;;;;;;;7.72;4.60;;;1.40;99.90;;;;;;5051144;28;20071;-79
2022/12/29 04:12:19;;;;;;;8.75;5.20;;;1.40;99.90;;;;;;5047921;28;20056;-79
2022/12/29 04:14:45;;;;;;;9.95;5.00;;;1.40;99.90;;;;;;5054699;28;20020;-72
2022/12/29 04:17:10;;;;;;;7.78;5.63;;;1.40;99.90;;;;;;5055091;28;20036;-79
2022/12/29 04:19:36;;;;;;;6.60;5.10;;;1.40;99.90;;;;;;5055015;28;20033;-72
2022/12/29 04:22:02;;;;;;;7.15;5.22;;;1.30;99.90;;;;;;5055184;28;20057;-72
2022/12/29 04:24:27;;;;;;;9.65;5.63;;;1.30;99.90;;;;;;5054842;28;20044;-78
2022/12/29 04:26:53;;;;;;;11.80;6.07;;;1.30;99.90;;;;;;5033692;28;20021;-79
2022/12/29 04:29:18;;;;;;;12.25;7.43;;;1.20;99.90;;;;;;5033646;28;20032;-78
2022/12/29 04:31:44;;;;;;;10.65;6.13;;;1.20;99.90;;;;;;5053317;28;20072;-78
2022/12/29 04:34:10;;;;;;;8.30;5.63;;;1.20;99.90;;;;;;5054848;28;20401;-73
2022/12/29 04:36:35;;;;;;;7.63;5.38;;;1.20;99.90;;;;;;5054368;28;20031;-78
2022/12/29 04:39:01;;;;;;;10.00;5.80;;;1.20;99.90;;;;;;5054622;28;20028;-79
2022/12/29 04:41:26;;;;;;;9.00;5.55;;;1.20;99.90;;;;;;5054285;28;20024;-72
2022/12/29 04:43:52;;;;;;;7.47;5.40;;;1.20;99.90;;;;;;5054738;28;20028;-72
2022/12/29 04:46:18;;;;;;;9.25;5.80;;;1.10;99.90;;;;;;5054194;28;20025;-72
2022/12/29 04:48:43;;;;;;;9.77;6.25;;;1.20;99.90;;;;;;5053012;28;20021;-73
2022/12/29 04:51:09;;;;;;;10.75;6.38;;;1.10;99.90;;;;;;5039933;28;20377;-79
2022/12/29 04:53:35;;;;;;;7.35;5.32;;;1.10;99.90;;;;;;5033447;28;20538;-79
2022/12/29 04:56:00;;;;;;;8.50;5.75;;;1.10;99.90;;;;;;5042107;28;20026;-72
2022/12/29 04:58:26;;;;;;;7.10;5.45;;;1.10;99.90;;;;;;5034207;28;20025;-73
2022/12/29 05:00:52;;;;;;;14.88;7.25;;;1.00;99.90;;;;;;5045523;28;20364;-73
2022/12/29 05:03:18;;;;;;;11.32;6.47;;;1.00;99.90;;;;;;5054245;28;20025;-73
2022/12/29 05:05:43;;;;;;;13.88;6.60;;;1.00;99.90;;;;;;5049193;28;20502;-72
2022/12/29 05:08:09;;;;;;;14.68;9.60;;;1.00;99.90;;;;;;5046338;28;20032;-73
2022/12/29 05:10:34;;;;;;;20.70;11.07;;;0.90;99.90;;;;;;5044355;28;20143;-72
2022/12/29 05:13:00;;;;;;;15.38;8.93;;;0.80;99.90;;;;;;5052728;28;20032;-78
2022/12/29 05:15:26;;;;;;;9.32;5.95;;;0.80;99.90;;;;;;5052286;28;20498;-79
2022/12/29 05:17:52;;;;;;;11.88;6.25;;;0.80;99.90;;;;;;5054048;28;20062;-73
2022/12/29 05:20:18;;;;;;;9.68;6.53;;;0.80;99.90;;;;;;5051950;28;20065;-72
2022/12/29 05:22:43;;;;;;;14.15;7.32;;;0.80;99.90;;;;;;5053747;28;20041;-79
2022/12/29 05:25:09;;;;;;;12.02;6.10;;;0.70;99.90;;;;;;5053282;28;20055;-78
2022/12/29 05:27:35;;;;;;;11.85;7.15;;;0.70;99.90;;;;;;5053657;28;20021;-73
2022/12/29 05:30:01;;;;;;;16.08;8.13;;;0.70;99.90;;;;;;5052681;28;20040;-79
2022/12/29 05:32:26;;;;;;;11.05;6.47;;;0.70;99.90;;;;;;5053165;28;20025;-78
2022/12/29 05:34:52;;;;;;;11.07;6.47;;;0.70;99.90;;;;;;5053628;28;20025;-79
2022/12/29 05:37:17;;;;;;;9.13;6.63;;;0.60;99.90;;;;;;5053285;28;20036;-79
2022/12/29 05:39:43;;;;;;;9.57;5.95;;;0.50;99.90;;;;;;5053502;28;20025;-72
2022/12/29 05:42:09;;;;;;;8.88;7.10;;;0.50;99.90;;;;;;5048525;28;20028;-79
2022/12/29 05:44:34;;;;;;;9.23;5.60;;;0.40;99.90;;;;;;5033544;28;20025;-79
2022/12/29 05:47:00;;;;;;;10.65;7.05;;;0.40;99.90;;;;;;5047974;28;20478;-73
2022/12/29 05:49:26;;;;;;;7.93;5.68;;;0.30;99.90;;;;;;5053269;28;20025;-79
2022/12/29 05:51:51;;;;;;;8.75;5.88;;;0.40;99.90;;;;;;5052777;28;20037;-73
2022/12/29 05:54:17;;;;;;;11.13;6.30;;;0.30;99.90;;;;;;5053361;28;20112;-74
2022/12/29 05:56:42;;;;;;;10.30;6.32;;;0.30;99.90;;;;;;5052890;28;20040;-72
2022/12/29 05:59:08;;;;;;;11.10;6.80;;;0.30;99.90;;;;;;5053334;28;20484;-72
2022/12/29 06:01:34;;;;;;;13.13;7.45;;;0.40;99.90;;;;;;5052790;28;20025;-79
2022/12/29 06:04:00;;;;;;;12.23;8.48;;;0.30;99.90;;;;;;5052812;28;20067;-73
2022/12/29 06:06:25;;;;;;;17.77;9.73;;;0.40;99.90;;;;;;5052729;28;20105;-79
2022/12/29 06:08:51;;;;;;;14.18;10.68;;;0.30;99.90;;;;;;5053066;28;20049;-74
2022/12/29 06:11:17;;;;;;;12.93;8.48;;;0.30;99.90;;;;;;5042369;28;20037;-72
2022/12/29 06:13:42;;;;;;;19.42;9.40;;;0.30;99.90;;;;;;5053117;28;20032;-79
2022/12/29 06:16:08;;;;;;;12.65;7.75;;;0.20;99.90;;;;;;5052508;28;20044;-73
2022/12/29 06:18:34;;;;;;;16.25;9.95;;;0.10;99.90;;;;;;5051725;28;20163;-79
2022/12/29 06:21:01;;;;;;;29.88;14.77;;;0.00;99.90;;;;;;5051081;28;20053;-79
2022/12/29 06:23:27;;;;;;;65.60;25.10;;;0.00;99.90;;;;;;5052960;28;20021;-78
2022/12/29 06:25:52;;;;;;;46.95;20.73;;;0.00;99.90;;;;;;5052663;28;20056;-78
2022/12/29 06:28:18;;;;;;;43.10;16.05;;;0.00;99.90;;;;;;5052979;28;20025;-73
2022/12/29 06:30:45;;;;;;;46.72;19.23;;;0.10;99.90;;;;;;5052632;28;20025;-79
2022/12/29 06:33:11;;;;;;;29.50;15.48;;;0.10;99.90;;;;;;5051676;28;20021;-72
2022/12/29 06:35:36;;;;;;;26.75;11.98;;;0.10;99.90;;;;;;5052604;28;20498;-72
2022/12/29 06:38:02;;;;;;;25.48;12.55;;;0.10;99.90;;;;;;5051426;28;20033;-73
2022/12/29 06:40:28;;;;;;;26.02;12.38;;;0.10;99.90;;;;;;5052468;28;20017;-79
2022/12/29 06:42:53;;;;;;;23.13;12.55;;;0.10;99.90;;;;;;5048728;28;20120;-78
2022/12/29 06:45:19;;;;;;;24.08;13.50;;;-0.10;99.90;;;;;;5048907;28;20017;-79
2022/12/29 06:47:44;;;;;;;23.48;12.90;;;-0.10;99.90;;;;;;5050381;28;20018;-79
2022/12/29 06:50:10;;;;;;;26.58;13.95;;;-0.20;99.90;;;;;;5044449;28;20033;-79
2022/12/29 06:52:35;;;;;;;27.65;15.00;;;-0.20;99.90;;;;;;5032573;28;20032;-73
2022/12/29 06:55:01;;;;;;;29.85;16.50;;;-0.30;99.90;;;;;;5030799;28;20052;-72
2022/12/29 06:57:27;;;;;;;54.33;23.80;;;-0.40;99.90;;;;;;5031124;28;20092;-74
2022/12/29 06:59:55;;;;;;;59.90;24.15;;;-0.50;99.90;;;;;;5032736;28;20036;-72
2022/12/29 07:02:21;;;;;;;38.97;19.60;;;-0.60;99.90;;;;;;5047816;28;20021;-72
2022/12/29 07:04:47;;;;;;;44.15;20.70;;;-0.60;99.90;;;;;;5051612;28;20082;-72
2022/12/29 07:07:12;;;;;;;42.65;20.88;;;-0.60;99.90;;;;;;5051566;28;20474;-73
2022/12/29 07:09:38;;;;;;;37.22;21.52;;;-0.50;99.90;;;;;;5050280;28;20108;-72
2022/12/29 07:12:04;;;;;;;52.65;25.17;;;-0.50;99.90;;;;;;5048455;28;20179;-79
2022/12/29 07:14:29;;;;;;;53.15;25.40;;;-0.50;99.90;;;;;;5049903;28;20471;-79
2022/12/29 07:16:55;;;;;;;40.63;18.80;;;-0.50;99.90;;;;;;5052265;28;20029;-73
2022/12/29 07:19:20;;;;;;;41.58;19.25;;;-0.50;99.90;;;;;;5053802;28;20029;-79
2022/12/29 07:21:46;;;;;;;52.08;23.00;;;-0.50;99.90;;;;;;5044857;28;20488;-79
2022/12/29 07:24:12;;;;;;;62.10;26.90;;;-0.40;99.90;;;;;;5052593;28;20021;-72
2022/12/29 07:26:37;;;;;;;55.40;23.77;;;-0.40;99.90;;;;;;5045499;28;20505;-78
2022/12/29 07:29:04;;;;;;;53.92;25.02;;;-0.40;99.90;;;;;;5054401;28;20021;-79
2022/12/29 07:31:30;;;;;;;69.35;27.02;;;-0.40;99.90;;;;;;5055517;28;20041;-72
2022/12/29 07:33:55;;;;;;;61.53;28.10;;;-0.40;99.90;;;;;;5055215;28;20532;-79
2022/12/29 07:36:21;;;;;;;78.40;35.28;;;-0.40;99.90;;;;;;5042657;28;20074;-76
2022/12/29 07:38:46;;;;;;;80.00;43.75;;;-0.40;99.90;;;;;;5054299;28;20017;-79
2022/12/29 07:41:12;;;;;;;101.95;44.97;;;-0.40;99.90;;;;;;5045092;28;20033;-79
2022/12/29 07:43:38;;;;;;;121.20;57.47;;;-0.40;99.90;;;;;;5054365;28;20108;-73
2022/12/29 07:46:03;;;;;;;82.47;40.97;;;-0.40;99.90;;;;;;5049819;28;20029;-72
2022/12/29 07:48:29;;;;;;;65.78;35.60;;;-0.40;99.90;;;;;;5053534;28;20124;-73
2022/12/29 07:50:54;;;;;;;55.08;28.45;;;-0.30;99.90;;;;;;5038232;23;20082;-79
2022/12/29 07:53:20;;;;;;;64.25;24.45;;;-0.20;99.90;;;;;;5015587;28;20093;-79
2022/12/29 07:55:46;;;;;;;54.90;27.08;;;-0.20;99.90;;;;;;5015210;28;20109;-73
2022/12/29 07:58:11;;;;;;;56.88;29.25;;;-0.20;99.90;;;;;;5015485;28;20029;-74
2022/12/29 08:00:38;;;;;;;71.80;35.10;;;-0.20;99.90;;;;;;5015427;28;20117;-73
2022/12/29 08:03:04;;;;;;;87.70;47.67;;;-0.10;99.90;;;;;;5014999;28;20028;-73
2022/12/29 08:05:34;;;;;;;80.80;41.30;;;0.00;99.90;;;;;;5022606;28;20065;-79
2022/12/29 08:07:59;;;;;;;68.68;37.08;;;0.00;99.90;;;;;;5021408;28;20042;-72
2022/12/29 08:10:25;;;;;;;57.83;30.10;;;0.00;99.90;;;;;;5014241;28;20038;-72
2022/12/29 08:12:51;;;;;;;75.80;40.08;;;0.10;99.90;;;;;;5014254;28;20523;-72
2022/12/29 08:15:16;;;;;;;106.32;52.38;;;0.20;99.90;;;;;;5013240;28;20037;-72
2022/12/29 08:17:42;;;;;;;88.90;46.97;;;0.30;99.90;;;;;;5013531;28;20072;-73
2022/12/29 08:20:08;;;;;;;83.50;40.08;;;0.50;99.90;;;;;;5013400;28;20053;-79
2022/12/29 08:22:34;;;;;;;71.57;36.88;;;0.70;99.90;;;;;;5013571;28;20076;-79
2022/12/29 08:24:59;;;;;;;71.03;36.50;;;0.80;99.90;;;;;;5012972;28;20419;-79
2022/12/29 08:27:25;;;;;;;69.38;35.35;;;0.90;99.90;;;;;;5011706;28;20026;-78
2022/12/29 08:29:51;;;;;;;101.75;49.72;;;1.10;99.90;;;;;;5011280;28;20018;-73
2022/12/29 08:32:17;;;;;;;79.97;39.38;;;1.20;99.90;;;;;;5012046;28;20040;-73
2022/12/29 08:34:43;;;;;;;67.53;34.72;;;1.20;99.90;;;;;;5011470;28;20468;-73
2022/12/29 08:37:08;;;;;;;92.18;42.53;;;1.30;99.90;;;;;;5012762;28;20030;-73
2022/12/29 08:39:34;;;;;;;54.40;27.95;;;1.40;99.90;;;;;;5013731;28;20448;-72
2022/12/29 08:42:00;;;;;;;39.90;22.13;;;1.50;99.90;;;;;;5014486;28;20104;-73
2022/12/29 08:44:25;;;;;;;35.35;18.50;;;1.60;99.90;;;;;;5015028;28;20032;-79
2022/12/29 08:46:51;;;;;;;43.20;23.27;;;1.70;99.90;;;;;;5013438;28;20029;-74
2022/12/29 08:49:16;;;;;;;46.92;23.40;;;1.80;99.90;;;;;;5014975;28;20463;-73
2022/12/29 08:51:42;;;;;;;50.53;25.77;;;1.90;99.90;;;;;;5014429;28;20053;-79
2022/12/29 08:54:07;;;;;;;46.83;27.80;;;2.00;99.90;;;;;;5014828;28;20018;-78
2022/12/29 08:56:33;;;;;;;59.70;27.08;;;2.00;99.90;;;;;;5014477;28;20049;-73
2022/12/29 08:58:59;;;;;;;33.20;20.23;;;2.10;99.90;;;;;;5014975;28;20463;-73
2022/12/29 09:01:24;;;;;;;32.20;18.02;;;2.20;99.90;;;;;;5014290;28;20113;-72
2022/12/29 09:03:50;;;;;;;46.08;20.77;;;2.40;99.90;;;;;;5014470;28;20028;-73
2022/12/29 09:06:17;;;;;;;25.95;14.45;;;2.50;99.90;;;;;;5014292;28;20217;-75
2022/12/29 09:08:43;;;;;;;25.70;13.70;;;2.60;99.90;;;;;;5014289;28;20029;-73
2022/12/29 09:11:13;;;;;;;23.27;12.30;;;2.80;99.90;;;;;;5014066;28;20046;-73
2022/12/29 09:13:39;;;;;;;21.65;12.05;;;2.90;99.90;;;;;;5013142;28;20062;-73
2022/12/29 09:16:04;;;;;;;19.38;12.65;;;3.10;99.90;;;;;;5014057;28;20107;-79
2022/12/29 09:18:30;;;;;;;18.88;11.75;;;3.20;99.90;;;;;;5014546;28;20026;-73
2022/12/29 09:21:01;;;;;;;19.27;10.77;;;3.30;98.70;;;;;;5013765;28;20018;-78
2022/12/29 09:23:27;;;;;;;15.32;9.55;;;3.50;97.70;;;;;;5013144;28;20105;-79
2022/12/29 09:25:53;;;;;;;19.75;10.43;;;3.60;95.20;;;;;;5012638;28;20041;-73
2022/12/29 09:28:20;;;;;;;16.45;10.60;;;3.80;93.80;;;;;;5014338;28;20029;-79
2022/12/29 09:30:46;;;;;;;16.85;9.75;;;3.90;92.40;;;;;;5013639;28;20475;-74
2022/12/29 09:33:11;;;;;;;20.17;11.05;;;4.10;91.70;;;;;;5014218;28;20024;-73
2022/12/29 09:35:37;;;;;;;17.75;10.48;;;4.20;90.00;;;;;;5013771;28;20100;-79
2022/12/29 09:38:02;;;;;;;17.02;10.15;;;4.30;89.60;;;;;;5012425;28;20073;-74
2022/12/29 09:40:31;;;;;;;17.58;10.15;;;4.40;89.00;;;;;;5013593;28;20033;-73
2022/12/29 09:43:00;;;;;;;15.35;9.85;;;4.60;88.30;;;;;;5013976;28;20398;-73
2022/12/29 09:46:01;;;;;;;15.90;10.05;;;4.60;87.00;;;;;;5013597;28;20076;-79
2022/12/29 09:48:33;;;;;;;16.85;9.75;;;4.70;86.00;;;;;;4992408;28;20054;-79
2022/12/29 09:51:03;;;;;;;14.88;8.85;;;4.80;85.80;;;;;;4999316;28;20045;-73
2022/12/29 09:53:37;;;;;;;14.77;9.55;;;4.90;85.40;;;;;;5012437;28;20022;-79
2022/12/29 09:56:05;;;;;;;15.77;8.90;;;5.00;85.90;;;;;;5013531;28;20384;-79
2022/12/29 09:58:49;;;;;;;16.05;8.52;;;5.20;85.90;;;;;;5012733;28;20025;-73
2022/12/29 10:01:30;;;;;;;14.98;8.80;;;5.30;86.70;;;;;;5013439;28;20022;-79
2022/12/29 10:03:58;;;;;;;15.48;8.50;;;5.40;86.60;;;;;;5013799;28;20428;-80
2022/12/29 10:06:56;;;;;;;9.52;7.05;;;5.60;85.70;;;;;;5012039;28;20026;-73
2022/12/29 10:09:53;;;;;;;14.88;7.22;;;5.70;84.50;;;;;;4992712;28;20369;-79
2022/12/29 10:12:42;;;;;;;12.45;7.13;;;5.80;84.20;;;;;;5023496;28;20434;-79
2022/12/29 10:15:35;;;;;;;10.65;7.25;;;5.90;83.90;;;;;;5012812;28;20025;-79
2022/12/29 10:18:38;;;;;;;13.95;8.32;;;5.90;83.90;;;;;;5013605;28;20026;-79
2022/12/29 10:21:22;;;;;;;13.68;7.45;;;5.90;82.30;;;;;;5013146;28;20100;-79
2022/12/29 10:23:54;;;;;;;11.85;6.55;;;5.90;81.80;;;;;;5012365;28;20034;-74
2022/12/29 10:26:29;;;;;;;10.05;6.63;;;5.90;82.70;;;;;;5013128;28;20022;-73
2022/12/29 10:29:04;;;;;;;11.18;7.10;;;5.90;83.20;;;;;;5013612;28;20033;-79
2022/12/29 10:31:57;;;;;;;10.57;6.82;;;6.00;83.90;;;;;;5011646;28;20033;-79
2022/12/29 10:34:25;;;;;;;16.13;7.30;;;6.20;83.70;;;;;;5009283;28;20396;-73
2022/12/29 10:36:58;;;;;;;10.23;6.53;;;6.30;84.20;;;;;;5012914;28;20018;-79
2022/12/29 10:39:36;;;;;;;12.95;6.82;;;6.30;83.70;;;;;;5011997;28;20050;-73
2022/12/29 10:42:29;;;;;;;11.45;6.50;;;6.30;82.00;;;;;;5011723;28;20034;-79
2022/12/29 10:44:55;;;;;;;8.48;5.80;;;6.40;82.30;;;;;;5011710;28;20022;-73
2022/12/29 10:47:25;;;;;;;11.68;7.15;;;6.40;83.10;;;;;;5012001;28;20018;-79
2022/12/29 10:49:51;;;;;;;11.10;5.82;;;6.40;83.00;;;;;;5012872;28;20390;-73
2022/12/29 10:52:20;;;;;;;10.77;6.40;;;6.50;82.80;;;;;;5015508;28;20038;-72
2022/12/29 10:55:05;;;;;;;8.23;6.30;;;6.50;83.30;;;;;;5015567;28;20395;-72
2022/12/29 10:57:39;;;;;;;7.93;5.07;;;6.60;83.00;;;;;;5017290;28;20026;-73
2022/12/29 11:00:14;;;;;;;11.30;6.65;;;6.70;83.20;;;;;;5016698;28;20022;-78
2022/12/29 11:03:09;;;;;;;13.00;8.60;;;6.70;83.60;;;;;;5015786;28;20029;-79
2022/12/29 11:05:45;;;;;;;12.27;7.03;;;6.80;82.90;;;;;;5015336;28;20058;-73
2022/12/29 11:08:16;;;;;;;14.30;9.50;;;6.90;82.70;;;;;;5016783;28;20078;-79
2022/12/29 11:10:44;;;;;;;16.77;13.32;;;6.90;82.30;;;;;;5015016;28;20038;-73
2022/12/29 11:13:24;;;;;;;12.90;8.93;;;7.00;82.80;;;;;;5016557;28;20476;-79
2022/12/29 11:15:51;;;;;;;8.93;6.22;;;7.00;83.40;;;;;;5014974;28;20045;-73
2022/12/29 11:18:27;;;;;;;6.95;4.97;;;7.00;82.20;;;;;;5015398;28;20040;-73
2022/12/29 11:21:00;;;;;;;8.25;4.88;;;7.10;81.60;;;;;;5016378;28;20445;-72
2022/12/29 11:23:34;;;;;;;8.68;5.55;;;7.10;82.00;;;;;;5015298;28;20041;-73
2022/12/29 11:26:06;;;;;;;9.90;5.35;;;7.10;82.40;;;;;;5016137;28;20026;-73
2022/12/29 11:28:33;;;;;;;9.75;6.00;;;7.10;82.60;;;;;;5016578;28;20080;-73
2022/12/29 11:31:03;;;;;;;8.82;5.50;;;7.20;82.90;;;;;;5014567;28;20057;-79
2022/12/29 11:33:29;;;;;;;8.00;5.38;;;7.30;83.00;;;;;;5015204;28;20026;-79
2022/12/29 11:36:18;;;;;;;8.15;4.85;;;7.30;81.20;;;;;;5015158;28;20025;-73
2022/12/29 11:38:53;;;;;;;9.45;5.22;;;7.50;80.00;;;;;;5016199;28;20026;-79
2022/12/29 11:41:28;;;;;;;12.05;6.00;;;7.60;78.70;;;;;;5015818;28;20025;-79
2022/12/29 11:43:57;;;;;;;7.45;5.10;;;7.70;79.20;;;;;;5016302;28;20468;-79
2022/12/29 11:46:31;;;;;;;8.50;5.22;;;7.80;79.80;;;;;;5014323;28;20380;-79
2022/12/29 11:48:59;;;;;;;7.07;5.05;;;7.80;79.60;;;;;;5016098;28;20026;-73
2022/12/29 11:51:45;;;;;;;9.80;5.95;;;7.80;78.30;;;;;;5015394;28;20423;-79
2022/12/29 11:54:24;;;;;;;8.57;5.55;;;7.90;79.20;;;;;;5016186;28;20115;-79
2022/12/29 11:56:51;;;;;;;6.53;5.10;;;7.90;78.40;;;;;;5015590;28;20030;-73
2022/12/29 11:59:33;;;;;;;10.68;5.63;;;8.00;78.20;;;;;;5014692;28;20076;-72
2022/12/29 12:02:01;;;;;;;8.27;6.10;;;8.10;78.90;;;;;;5013862;28;20032;-74
2022/12/29 12:04:36;;;;;;;9.10;5.60;;;8.20;77.50;;;;;;5015738;28;20117;-79
2022/12/29 12:07:07;;;;;;;8.70;5.60;;;8.30;77.70;;;;;;5014417;28;20026;-79
2022/12/29 12:09:51;;;;;;;10.93;6.22;;;8.30;77.50;;;;;;5015643;28;20025;-73
2022/12/29 12:12:29;;;;;;;10.63;6.80;;;8.30;77.40;;;;;;5015141;28;20049;-79
2022/12/29 12:14:59;;;;;;;21.13;11.88;;;8.20;77.00;;;;;;5014206;28;20364;-73
2022/12/29 12:17:53;;;;;;;25.63;11.57;;;8.20;77.40;;;;;;5015175;28;20021;-73
2022/12/29 12:20:49;;;;;;;14.05;8.75;;;8.10;77.10;;;;;;5015152;28;20572;-79
2022/12/29 12:23:30;;;;;;;14.45;7.88;;;8.00;78.20;;;;;;5014159;28;20557;-73
2022/12/29 12:26:10;;;;;;;17.27;8.70;;;8.00;79.00;;;;;;5015119;28;20034;-73
2022/12/29 12:29:18;;;;;;;21.40;12.98;;;8.00;79.00;;;;;;5015435;28;20017;-73
2022/12/29 12:31:56;;;;;;;11.88;8.80;;;8.00;78.70;;;;;;5018668;28;20057;-79
2022/12/29 12:34:38;;;;;;;21.52;11.38;;;8.00;79.40;;;;;;5015428;28;20018;-79
2022/12/29 12:37:25;;;;;;;35.47;16.20;;;8.00;79.70;;;;;;5014765;28;20030;-73
2022/12/29 12:40:24;;;;;;;9.57;5.85;;;8.00;80.70;;;;;;5013897;28;20030;-73
2022/12/29 12:43:24;;;;;;;15.30;7.70;;;8.00;80.10;;;;;;5015242;28;20029;-73
2022/12/29 12:46:04;;;;;;;14.40;7.05;;;8.00;79.70;;;;;;5014823;28;20026;-73
2022/12/29 12:48:45;;;;;;;12.07;7.55;;;8.00;79.30;;;;;;5015039;28;20025;-73
2022/12/29 12:51:40;;;;;;;11.57;7.38;;;8.10;79.90;;;;;;5014525;28;20081;-73
2022/12/29 12:54:14;;;;;;;17.90;9.60;;;8.20;80.10;;;;;;5015042;28;20383;-73
2022/12/29 12:57:02;;;;;;;19.73;8.40;;;8.20;78.60;;;;;;5014518;28;20026;-73
2022/12/29 12:59:42;;;;;;;21.27;12.80;;;8.20;78.90;;;;;;5014820;28;20030;-73
2022/12/29 13:02:37;;;;;;;13.80;10.15;;;8.20;78.80;;;;;;5013392;28;20030;-79
2022/12/29 13:05:12;;;;;;;33.33;18.17;;;8.30;77.80;;;;;;5013113;28;20029;-73
2022/12/29 13:07:38;;;;;;;11.15;6.38;;;8.40;78.60;;;;;;5014691;28;20137;-72
2022/12/29 13:10:31;;;;;;;19.17;10.10;;;8.40;78.70;;;;;;5014306;28;20018;-79
2022/12/29 13:13:15;;;;;;;13.90;9.95;;;8.40;78.10;;;;;;5009267;28;20052;-78
2022/12/29 13:15:51;;;;;;;31.98;16.65;;;8.50;78.30;;;;;;5004126;28;20033;-78
2022/12/29 13:18:33;;;;;;;16.73;8.32;;;8.50;78.10;;;;;;5013234;28;20053;-73
2022/12/29 13:21:17;;;;;;;9.60;6.73;;;8.50;78.00;;;;;;5012928;28;20061;-79
2022/12/29 13:23:50;;;;;;;11.50;7.25;;;8.40;77.70;;;;;;5014322;28;20105;-79
2022/12/29 13:26:34;;;;;;;23.95;11.98;;;8.40;76.80;;;;;;5014136;28;20025;-73
2022/12/29 13:29:17;;;;;;;28.00;11.65;;;8.30;80.20;;;;;;5012963;28;20443;-73
2022/12/29 13:32:17;;;;;;;35.90;16.77;;;8.20;79.70;;;;;;5013966;28;20392;-79
2022/12/29 13:35:17;;;;;;;20.00;11.63;;;8.20;79.40;;;;;;5029440;28;20028;-72
2022/12/29 13:38:12;;;;;;;19.88;10.32;;;8.10;79.70;;;;;;5014037;28;20026;-78
2022/12/29 13:40:43;;;;;;;13.93;8.68;;;8.00;80.40;;;;;;5012605;28;20030;-79
2022/12/29 13:43:09;;;;;;;13.30;8.23;;;8.00;81.10;;;;;;5013871;28;20036;-78